Aviation Digital Data Service (ADDS)

Output produced by TAFs form (0824 UTC 23 November 2014)
found at http://aviationweather.gov/adds/tafs/
 
KTCS 230520Z 2306/2406 31007KT P6SM SCT250 
     FM231400 VRB06KT P6SM FEW250 
     FM231800 28018G28KT P6SM SCT250 
     FM240100 36015KT P6SM SKC